Time;durP1;ratioP1;P1;durP2;ratioP2;P2;SDS_P1;SDS_P2;PMS_P1;PMS_P2;Temp;Humidity;BMP_temperature;BMP_pressure;BME280_temperature;BME280_humidity;BME280_pressure;Samples;Min_cycle;Max_cycle;Signal;HPM_P1;HPM_P2
2023/08/12 00:02:12;;;;;;;37.25;34.45;;;;;;;15.66;100.00;101537.44;5028997;28;20443;-77
2023/08/12 00:04:40;;;;;;;42.50;39.60;;;;;;;15.90;100.00;101533.13;5028903;28;20422;-78
2023/08/12 00:07:07;;;;;;;35.83;33.00;;;;;;;15.07;100.00;101540.34;5024163;28;20441;-78
2023/08/12 00:09:34;;;;;;;41.40;38.40;;;;;;;15.60;100.00;101549.03;5021437;28;20050;-78
2023/08/12 00:12:01;;;;;;;39.75;36.95;;;;;;;16.02;100.00;101542.88;5027091;28;20049;-77
2023/08/12 00:14:27;;;;;;;38.85;36.20;;;;;;;16.24;100.00;101543.25;5026936;28;20042;-77
2023/08/12 00:16:54;;;;;;;32.45;29.85;;;;;;;16.15;100.00;101543.78;5015918;28;20502;-77
2023/08/12 00:19:21;;;;;;;32.45;29.88;;;;;;;15.92;100.00;101539.91;5022443;28;20041;-77
2023/08/12 00:21:52;;;;;;;37.40;34.70;;;;;;;16.08;100.00;101537.69;5029375;28;20046;-77
2023/08/12 00:24:19;;;;;;;35.75;33.15;;;;;;;15.96;100.00;101540.28;5025960;28;20083;-78
2023/08/12 00:26:45;;;;;;;34.88;32.17;;;;;;;15.62;100.00;101542.41;5015805;28;20097;-78
2023/08/12 00:29:12;;;;;;;33.90;31.30;;;;;;;15.71;100.00;101541.13;5017148;28;20489;-77
2023/08/12 00:31:39;;;;;;;35.38;32.65;;;;;;;15.55;100.00;101549.66;5031280;28;20044;-77
2023/08/12 00:34:06;;;;;;;37.13;34.15;;;;;;;15.53;100.00;101554.44;5033139;28;20434;-77
2023/08/12 00:36:33;;;;;;;47.42;44.13;;;;;;;15.80;100.00;101557.75;5031330;28;20099;-78
2023/08/12 00:39:01;;;;;;;34.72;31.83;;;;;;;14.85;100.00;101552.41;5030805;28;20056;-77
2023/08/12 00:41:28;;;;;;;38.63;35.63;;;;;;;15.69;100.00;101559.28;5028896;28;20053;-77
2023/08/12 00:43:54;;;;;;;41.55;38.35;;;;;;;15.00;100.00;101542.25;5032998;28;20049;-77
2023/08/12 00:46:22;;;;;;;35.78;32.88;;;;;;;15.50;100.00;101550.34;5026480;28;20053;-77
2023/08/12 00:48:49;;;;;;;39.38;36.45;;;;;;;15.74;100.00;101538.00;5028783;28;20084;-77
2023/08/12 00:51:17;;;;;;;44.03;40.83;;;;;;;15.61;100.00;101540.75;5031223;28;20041;-77
2023/08/12 00:53:45;;;;;;;35.67;32.88;;;;;;;15.30;100.00;101547.81;5031516;28;20434;-78
2023/08/12 00:56:14;;;;;;;36.80;34.00;;;;;;;15.35;100.00;101539.13;5029334;28;20421;-78
2023/08/12 00:58:42;;;;;;;41.17;37.97;;;;;;;15.43;100.00;101551.41;5032226;28;20050;-77
2023/08/12 01:01:09;;;;;;;37.13;34.13;;;;;;;15.14;100.00;101545.66;5027934;28;20497;-79
2023/08/12 01:03:36;;;;;;;35.40;32.60;;;;;;;15.31;100.00;101543.25;5028636;28;20446;-80
2023/08/12 01:06:03;;;;;;;35.75;33.05;;;;;;;15.44;100.00;101537.81;5019825;28;20053;-80
2023/08/12 01:08:32;;;;;;;36.58;33.78;;;;;;;15.58;100.00;101542.03;5028092;28;20045;-80
2023/08/12 01:11:04;;;;;;;38.25;35.45;;;;;;;15.51;100.00;101538.59;5019511;28;20046;-79
2023/08/12 01:13:39;;;;;;;39.20;36.40;;;;;;;15.52;100.00;101536.72;5023333;28;20041;-80
2023/08/12 01:16:09;;;;;;;39.97;37.17;;;;;;;15.48;100.00;101533.66;5022424;28;20436;-80
2023/08/12 01:18:38;;;;;;;31.23;28.63;;;;;;;15.28;100.00;101539.19;5027103;28;20516;-79
2023/08/12 01:21:08;;;;;;;35.08;32.20;;;;;;;15.14;100.00;101531.47;5031412;28;20091;-79
2023/08/12 01:23:38;;;;;;;39.28;36.47;;;;;;;15.22;100.00;101544.56;5020465;28;20046;-80
2023/08/12 01:26:05;;;;;;;38.60;35.75;;;;;;;15.40;100.00;101547.34;5023756;28;20042;-80
2023/08/12 01:28:31;;;;;;;40.58;37.58;;;;;;;14.98;100.00;101549.69;5023567;28;20098;-79
2023/08/12 01:31:10;;;;;;;36.50;33.70;;;;;;;15.08;100.00;101542.00;5030550;28;20046;-80
2023/08/12 01:33:43;;;;;;;32.63;30.02;;;;;;;15.30;100.00;101549.66;5031616;28;20053;-79
2023/08/12 01:36:14;;;;;;;35.95;33.22;;;;;;;15.23;100.00;101552.38;5031205;28;20103;-80
2023/08/12 01:38:44;;;;;;;41.83;38.75;;;;;;;15.24;100.00;101547.84;5031412;28;20127;-79
2023/08/12 01:41:12;;;;;;;36.20;33.53;;;;;;;15.28;100.00;101544.53;5028713;28;20211;-80
2023/08/12 01:43:39;;;;;;;34.50;31.80;;;;;;;15.29;100.00;101550.72;5028827;28;20516;-79
2023/08/12 01:46:06;;;;;;;45.03;41.67;;;;;;;14.99;100.00;101564.69;5031863;28;20049;-80
2023/08/12 01:48:33;;;;;;;37.83;34.83;;;;;;;15.11;100.00;101554.13;5027871;28;20041;-80
2023/08/12 01:51:00;;;;;;;34.55;31.83;;;;;;;14.88;100.00;101565.34;5027295;28;20545;-80
2023/08/12 01:53:27;;;;;;;34.28;31.58;;;;;;;14.87;100.00;101563.72;5025606;28;20049;-80
2023/08/12 01:55:55;;;;;;;35.85;33.00;;;;;;;15.08;100.00;101565.25;5023185;28;20065;-80
2023/08/12 01:58:22;;;;;;;35.22;32.33;;;;;;;14.05;100.00;101567.88;5022012;28;20050;-80
2023/08/12 02:00:49;;;;;;;35.03;32.17;;;;;;;14.56;100.00;101570.66;5030383;28;20045;-80
2023/08/12 02:03:16;;;;;;;33.88;31.10;;;;;;;14.69;100.00;101575.13;5022023;28;20049;-80
2023/08/12 02:05:43;;;;;;;36.20;33.45;;;;;;;14.88;100.00;101576.88;5025777;28;20050;-80
2023/08/12 02:08:10;;;;;;;37.80;34.80;;;;;;;14.59;100.00;101575.56;5023045;28;20041;-77
2023/08/12 02:10:37;;;;;;;40.13;37.17;;;;;;;14.91;100.00;101585.50;5028766;28;20053;-77
2023/08/12 02:13:05;;;;;;;35.38;32.67;;;;;;;14.95;100.00;101582.19;5028246;28;20049;-77
2023/08/12 02:15:32;;;;;;;34.10;31.40;;;;;;;14.70;100.00;101592.78;5027146;28;20045;-77
2023/08/12 02:17:59;;;;;;;32.17;29.58;;;;;;;14.70;100.00;101590.13;5029588;28;20053;-77
2023/08/12 02:20:26;;;;;;;33.08;30.48;;;;;;;14.88;100.00;101598.25;5030744;28;20077;-77
2023/08/12 02:22:53;;;;;;;34.72;32.03;;;;;;;14.43;100.00;101590.19;5030736;28;20042;-77
2023/08/12 02:25:20;;;;;;;33.65;31.05;;;;;;;14.75;100.00;101592.16;5029107;28;20053;-77
2023/08/12 02:27:47;;;;;;;38.10;35.38;;;;;;;15.01;100.00;101600.06;5025749;28;20445;-77
2023/08/12 02:30:15;;;;;;;32.70;30.10;;;;;;;14.88;100.00;101595.59;5031160;28;20034;-77
2023/08/12 02:32:43;;;;;;;30.30;27.70;;;;;;;14.68;100.00;101592.19;5028460;28;20417;-80
2023/08/12 02:35:10;;;;;;;35.80;33.00;;;;;;;14.69;100.00;101601.84;5022069;28;20133;-79
2023/08/12 02:37:37;;;;;;;31.90;29.20;;;;;;;14.36;100.00;101600.06;5022931;28;20429;-77
2023/08/12 02:40:05;;;;;;;37.55;34.55;;;;;;;14.57;100.00;101603.53;5018571;28;20073;-77
2023/08/12 02:42:32;;;;;;;29.05;26.65;;;;;;;14.68;100.00;101599.41;5020128;28;20052;-77
2023/08/12 02:44:59;;;;;;;32.38;29.77;;;;;;;14.76;100.00;101591.13;5021567;28;20489;-77
2023/08/12 02:47:28;;;;;;;33.80;31.00;;;;;;;14.36;100.00;101599.25;5022666;28;20065;-77
2023/08/12 02:49:54;;;;;;;30.27;27.77;;;;;;;14.15;100.00;101603.00;5026927;28;20448;-77
2023/08/12 02:52:24;;;;;;;36.92;34.03;;;;;;;14.19;100.00;101599.72;5029542;28;20037;-77
2023/08/12 02:54:52;;;;;;;32.92;30.33;;;;;;;14.30;100.00;101608.91;5026398;28;20066;-77
2023/08/12 02:57:19;;;;;;;41.80;38.72;;;;;;;14.36;100.00;101601.91;5029995;28;20072;-77
2023/08/12 02:59:46;;;;;;;33.97;31.27;;;;;;;14.51;100.00;101609.69;5030386;28;20469;-77
2023/08/12 03:02:13;;;;;;;35.15;32.38;;;;;;;14.23;100.00;101602.78;5025239;28;20425;-77
2023/08/12 03:04:41;;;;;;;35.60;32.85;;;;;;;14.30;100.00;101608.09;5018366;28;20037;-77
2023/08/12 03:07:08;;;;;;;30.27;27.80;;;;;;;14.13;100.00;101603.22;5023086;28;20501;-77
2023/08/12 03:09:36;;;;;;;29.25;27.05;;;;;;;14.48;100.00;101602.91;5025210;28;20049;-80
2023/08/12 03:12:03;;;;;;;29.25;26.95;;;;;;;14.46;100.00;101604.97;5022304;28;20038;-79
2023/08/12 03:14:30;;;;;;;29.40;27.02;;;;;;;14.52;100.00;101608.69;5029425;28;20527;-80
2023/08/12 03:16:57;;;;;;;26.40;24.30;;;;;;;14.55;100.00;101606.41;5029418;28;20123;-77
2023/08/12 03:19:24;;;;;;;29.40;27.00;;;;;;;14.38;100.00;101607.88;5028684;28;20053;-77
2023/08/12 03:21:53;;;;;;;26.45;24.25;;;;;;;14.51;100.00;101617.72;5021488;28;20049;-80
2023/08/12 03:24:19;;;;;;;28.48;26.17;;;;;;;14.40;100.00;101619.16;5029250;28;20037;-80
2023/08/12 03:26:46;;;;;;;25.42;23.40;;;;;;;14.48;100.00;101615.47;5027116;28;20053;-77
2023/08/12 03:29:13;;;;;;;24.77;22.85;;;;;;;14.37;100.00;101607.06;5028961;28;20450;-77
2023/08/12 03:31:40;;;;;;;25.52;23.48;;;;;;;14.37;100.00;101611.56;5027123;28;20048;-80
2023/08/12 03:34:07;;;;;;;24.25;22.35;;;;;;;14.76;100.00;101607.97;5019683;28;20060;-80
2023/08/12 03:36:33;;;;;;;24.23;22.42;;;;;;;14.16;100.00;101616.16;5024583;28;20046;-77
2023/08/12 03:39:02;;;;;;;24.45;22.55;;;;;;;14.52;100.00;101620.19;5021026;28;20054;-80
2023/08/12 03:41:29;;;;;;;24.80;22.60;;;;;;;14.63;100.00;101614.22;5028826;28;20037;-80
2023/08/12 03:43:57;;;;;;;26.30;24.27;;;;;;;14.73;100.00;101618.28;5028952;28;20042;-80
2023/08/12 03:46:24;;;;;;;27.25;25.05;;;;;;;14.47;100.00;101619.19;5026952;28;20060;-77
2023/08/12 03:48:51;;;;;;;26.17;24.10;;;;;;;14.61;100.00;101623.47;5017599;28;20049;-77
2023/08/12 03:51:18;;;;;;;26.95;24.85;;;;;;;14.82;100.00;101622.38;5022072;28;20050;-80
2023/08/12 03:53:45;;;;;;;26.58;24.48;;;;;;;14.97;100.00;101630.94;5020697;28;20418;-80
2023/08/12 03:56:16;;;;;;;26.63;24.52;;;;;;;14.70;100.00;101632.06;5021919;28;20144;-77
2023/08/12 03:58:43;;;;;;;27.38;25.13;;;;;;;15.23;100.00;101629.19;5022521;28;20057;-77
2023/08/12 04:01:10;;;;;;;25.52;23.45;;;;;;;15.26;100.00;101629.56;5016825;28;20527;-77
2023/08/12 04:03:37;;;;;;;27.65;25.45;;;;;;;15.47;100.00;101631.09;5025863;28;20042;-77
2023/08/12 04:06:04;;;;;;;27.13;25.02;;;;;;;15.49;100.00;101639.72;5023979;28;20049;-77
2023/08/12 04:08:32;;;;;;;29.25;26.95;;;;;;;15.75;100.00;101641.41;5022654;28;20042;-77
2023/08/12 04:10:58;;;;;;;26.27;24.27;;;;;;;15.43;100.00;101651.31;5026294;28;20061;-77
2023/08/12 04:13:27;;;;;;;30.88;28.60;;;;;;;15.76;100.00;101643.06;5027107;28;20050;-77
2023/08/12 04:15:54;;;;;;;31.52;29.23;;;;;;;15.93;100.00;101645.19;5027825;28;20492;-77
2023/08/12 04:18:21;;;;;;;29.35;27.23;;;;;;;15.90;100.00;101645.63;5026179;28;20601;-78
2023/08/12 04:20:50;;;;;;;28.95;26.75;;;;;;;15.75;100.00;101637.94;5028989;28;20057;-77
2023/08/12 04:23:17;;;;;;;29.58;27.38;;;;;;;16.00;100.00;101645.94;5025781;28;20053;-77
2023/08/12 04:25:44;;;;;;;29.75;27.55;;;;;;;16.22;100.00;101649.06;5028333;28;20049;-77
2023/08/12 04:28:11;;;;;;;31.35;29.00;;;;;;;16.37;100.00;101654.06;5028282;28;20049;-77
2023/08/12 04:30:44;;;;;;;29.13;27.02;;;;;;;16.23;100.00;101651.53;5024548;28;20072;-80
2023/08/12 04:33:11;;;;;;;30.17;28.08;;;;;;;16.36;100.00;101653.25;5017499;28;20053;-80
2023/08/12 04:35:39;;;;;;;29.10;27.00;;;;;;;16.42;100.00;101654.22;5023098;28;20056;-80
2023/08/12 04:38:06;;;;;;;27.90;25.70;;;;;;;16.47;100.00;101652.53;5021583;28;20045;-78
2023/08/12 04:40:33;;;;;;;27.50;25.50;;;;;;;16.67;100.00;101655.00;5023184;28;20053;-77
2023/08/12 04:43:01;;;;;;;28.50;26.50;;;;;;;16.65;100.00;101643.66;5026134;28;20418;-77
2023/08/12 04:45:28;;;;;;;27.40;25.33;;;;;;;16.98;100.00;101653.22;5025899;28;20115;-77
2023/08/12 04:47:59;;;;;;;28.45;26.42;;;;;;;17.10;100.00;101661.34;5023935;28;20046;-80
2023/08/12 04:50:26;;;;;;;27.92;25.92;;;;;;;17.05;100.00;101659.31;5026238;28;20043;-80
2023/08/12 04:52:53;;;;;;;28.98;26.98;;;;;;;17.03;100.00;101657.91;5026878;28;20041;-77
2023/08/12 04:55:20;;;;;;;27.60;25.60;;;;;;;17.28;100.00;101655.94;5020125;28;20121;-80
2023/08/12 04:57:46;;;;;;;26.48;24.63;;;;;;;17.34;100.00;101657.69;5028368;28;20056;-81
2023/08/12 05:00:14;;;;;;;27.38;25.33;;;;;;;17.40;100.00;101662.16;5025477;28;20056;-80
2023/08/12 05:02:41;;;;;;;27.92;25.90;;;;;;;17.44;100.00;101651.78;5027811;28;20322;-81
2023/08/12 05:05:09;;;;;;;26.15;24.25;;;;;;;17.68;100.00;101659.91;5021367;28;20476;-81
2023/08/12 05:07:37;;;;;;;26.73;24.83;;;;;;;17.97;100.00;101655.53;5026909;28;20079;-81
2023/08/12 05:10:04;;;;;;;26.98;24.98;;;;;;;17.77;100.00;101664.72;5025348;28;20164;-81
2023/08/12 05:12:31;;;;;;;24.48;22.77;;;;;;;17.95;100.00;101657.63;5024881;28;20068;-80
2023/08/12 05:14:57;;;;;;;24.00;22.40;;;;;;;17.89;100.00;101659.38;5024583;28;20072;-80
2023/08/12 05:17:24;;;;;;;25.00;23.30;;;;;;;18.14;100.00;101658.34;5024538;28;20517;-80
2023/08/12 05:19:51;;;;;;;24.70;22.90;;;;;;;18.30;100.00;101665.69;5026971;28;20043;-81
2023/08/12 05:22:21;;;;;;;24.13;22.42;;;;;;;18.26;100.00;101656.47;5018289;28;20046;-81
2023/08/12 05:24:47;;;;;;;24.35;22.65;;;;;;;18.72;100.00;101660.16;5027166;28;20080;-80
2023/08/12 05:27:14;;;;;;;23.60;22.00;;;;;;;18.64;100.00;101653.28;5022004;28;20045;-80
2023/08/12 05:29:41;;;;;;;23.08;21.58;;;;;;;18.94;100.00;101658.50;5027983;28;20053;-81
2023/08/12 05:32:08;;;;;;;22.05;20.65;;;;;;;19.14;100.00;101658.06;5026647;28;20045;-81
2023/08/12 05:34:35;;;;;;;22.17;20.77;;;;;;;19.14;100.00;101659.97;5022790;28;20454;-77
2023/08/12 05:37:02;;;;;;;22.13;20.63;;;;;;;19.09;100.00;101659.84;5028866;28;20049;-77
2023/08/12 05:39:30;;;;;;;22.13;20.45;;;;;;;19.36;100.00;101652.81;5031266;28;20042;-78
2023/08/12 05:41:57;;;;;;;22.27;20.88;;;;;;;19.58;100.00;101655.66;5026969;28;20049;-77
2023/08/12 05:44:24;;;;;;;21.45;20.05;;;;;;;19.97;100.00;101642.31;5022677;28;20425;-77
2023/08/12 05:46:51;;;;;;;21.70;20.30;;;;;;;19.90;100.00;101637.06;5030438;28;20061;-80
2023/08/12 05:49:17;;;;;;;21.65;20.35;;;;;;;19.92;100.00;101646.81;5026997;28;20050;-78
2023/08/12 05:51:44;;;;;;;23.35;21.88;;;;;;;20.06;100.00;101640.84;5021915;28;20056;-77
2023/08/12 05:54:11;;;;;;;21.58;20.17;;;;;;;20.17;100.00;101635.56;5028325;28;20045;-81
2023/08/12 05:56:39;;;;;;;21.95;20.65;;;;;;;20.25;100.00;101627.88;5030936;28;20482;-81
2023/08/12 05:59:06;;;;;;;21.30;20.00;;;;;;;20.55;100.00;101630.19;5026381;28;20462;-81
2023/08/12 06:01:33;;;;;;;20.95;19.70;;;;;;;20.66;100.00;101628.44;5028966;28;20049;-81
2023/08/12 06:04:00;;;;;;;21.75;20.38;;;;;;;20.85;100.00;101634.34;5030026;28;20053;-81
2023/08/12 06:06:26;;;;;;;21.25;19.75;;;;;;;20.61;100.00;101628.38;5030065;28;20041;-81
2023/08/12 06:08:53;;;;;;;20.20;18.90;;;;;;;20.96;100.00;101632.56;5030910;28;20049;-81
2023/08/12 06:11:20;;;;;;;19.25;18.05;;;;;;;21.24;100.00;101635.03;5023427;28;20052;-81
2023/08/12 06:13:49;;;;;;;20.60;19.30;;;;;;;21.25;100.00;101625.03;5027602;28;20046;-81
2023/08/12 06:16:16;;;;;;;19.80;18.40;;;;;;;22.00;100.00;101642.19;5023813;28;20041;-81
2023/08/12 06:18:42;;;;;;;21.65;19.92;;;;;;;22.21;100.00;101629.66;5021040;28;20054;-81
2023/08/12 06:21:09;;;;;;;20.85;19.45;;;;;;;22.26;100.00;101624.25;5026111;28;20501;-82
2023/08/12 06:23:36;;;;;;;21.00;19.50;;;;;;;22.61;100.00;101631.72;5027338;28;20091;-82
2023/08/12 06:26:03;;;;;;;21.77;20.17;;;;;;;23.36;100.00;101627.88;5022958;28;20429;-82
2023/08/12 06:28:30;;;;;;;22.75;20.95;;;;;;;23.26;100.00;101631.41;5026913;28;20068;-81
2023/08/12 06:30:59;;;;;;;21.77;20.08;;;;;;;23.03;100.00;101625.41;5028144;28;20060;-81
2023/08/12 06:33:25;;;;;;;22.33;20.52;;;;;;;22.94;100.00;101621.59;5026200;28;20528;-81
2023/08/12 06:35:52;;;;;;;21.65;20.05;;;;;;;23.78;100.00;101622.22;5023757;28;20053;-81
2023/08/12 06:38:21;;;;;;;22.58;20.77;;;;;;;24.40;100.00;101621.00;5026200;28;20056;-78
2023/08/12 06:40:48;;;;;;;23.50;21.70;;;;;;;24.21;100.00;101620.00;5030343;28;20140;-81
2023/08/12 06:43:15;;;;;;;24.23;22.30;;;;;;;24.17;100.00;101619.72;5026829;28;20425;-78
2023/08/12 06:45:42;;;;;;;24.50;22.60;;;;;;;24.21;100.00;101625.41;5027543;28;20049;-81
2023/08/12 06:48:10;;;;;;;22.20;20.50;;;;;;;24.04;100.00;101633.84;5027341;28;20140;-81
2023/08/12 06:50:37;;;;;;;22.85;21.10;;;;;;;23.82;100.00;101626.03;5024250;28;20521;-77
2023/08/12 06:53:04;;;;;;;22.73;21.02;;;;;;;23.65;100.00;101637.13;5020223;28;20049;-81
2023/08/12 06:55:31;;;;;;;23.02;21.42;;;;;;;24.34;100.00;101624.03;5022701;28;20081;-82
2023/08/12 06:57:58;;;;;;;24.25;22.27;;;;;;;24.26;100.00;101624.56;5022121;28;20049;-81
2023/08/12 07:00:24;;;;;;;24.17;22.48;;;;;;;24.12;100.00;101636.03;5018571;28;20057;-80
2023/08/12 07:02:51;;;;;;;22.35;20.75;;;;;;;23.84;100.00;101636.59;5018027;28;20052;-81
2023/08/12 07:05:20;;;;;;;21.95;20.35;;;;;;;24.08;100.00;101632.22;5023954;28;20465;-81
2023/08/12 07:07:46;;;;;;;22.55;20.85;;;;;;;24.20;100.00;101624.59;5019924;28;20424;-80
2023/08/12 07:10:13;;;;;;;20.88;19.25;;;;;;;24.29;100.00;101618.59;5024972;28;20501;-78
2023/08/12 07:12:40;;;;;;;21.77;20.08;;;;;;;24.72;100.00;101622.56;5017316;28;20053;-78
2023/08/12 07:15:10;;;;;;;22.55;20.85;;;;;;;24.66;100.00;101620.91;5023177;28;20049;-78
2023/08/12 07:17:37;;;;;;;23.27;20.83;;;;;;;24.68;100.00;101602.44;5020915;28;20144;-79
2023/08/12 07:20:05;;;;;;;23.88;22.08;;;;;;;24.40;100.00;101610.16;5025629;28;20096;-79
2023/08/12 07:22:33;;;;;;;24.55;22.17;;;;;;;24.89;100.00;101606.69;5022811;28;20058;-77
2023/08/12 07:25:01;;;;;;;23.67;21.88;;;;;;;24.72;100.00;101616.28;5019826;28;20056;-80
2023/08/12 07:27:28;;;;;;;22.85;21.00;;;;;;;24.56;100.00;101604.69;5021247;28;20060;-78
2023/08/12 07:29:55;;;;;;;23.10;21.40;;;;;;;25.02;100.00;101610.66;5023467;28;20057;-81
2023/08/12 07:32:22;;;;;;;23.33;21.52;;;;;;;25.43;100.00;101609.63;5023591;28;20046;-80
2023/08/12 07:34:51;;;;;;;24.20;22.40;;;;;;;25.71;100.00;101603.38;5029333;28;20052;-78
2023/08/12 07:37:18;;;;;;;23.70;21.90;;;;;;;25.34;100.00;101609.41;5029293;28;20484;-81
2023/08/12 07:39:46;;;;;;;23.90;22.10;;;;;;;25.27;100.00;101609.72;5028443;28;20046;-80
2023/08/12 07:42:13;;;;;;;22.35;20.55;;;;;;;25.44;100.00;101613.94;5029655;28;20433;-78
2023/08/12 07:44:40;;;;;;;21.95;20.25;;;;;;;25.29;100.00;101606.72;5027133;28;20053;-78
2023/08/12 07:47:07;;;;;;;20.75;19.15;;;;;;;25.34;100.00;101604.78;5029229;28;20082;-78
2023/08/12 07:49:34;;;;;;;21.88;20.17;;;;;;;25.47;100.00;101599.78;5029104;28;20467;-78
2023/08/12 07:52:01;;;;;;;22.90;21.20;;;;;;;25.69;100.00;101604.75;5021993;28;20137;-78
2023/08/12 07:54:28;;;;;;;22.25;20.58;;;;;;;25.86;100.00;101604.38;5028338;28;20527;-81
2023/08/12 07:56:57;;;;;;;24.00;22.10;;;;;;;25.90;100.00;101605.41;5029003;28;20064;-78
2023/08/12 07:59:25;;;;;;;23.15;21.25;;;;;;;26.02;100.00;101597.66;5027176;28;20045;-80
2023/08/12 08:01:52;;;;;;;21.92;20.13;;;;;;;25.84;100.00;101596.50;5027829;28;20128;-80
2023/08/12 08:04:19;;;;;;;20.90;19.20;;;;;;;25.78;100.00;101603.03;5018267;28;20433;-80
2023/08/12 08:06:46;;;;;;;23.08;21.30;;;;;;;25.91;100.00;101599.69;5022309;28;20136;-80
2023/08/12 08:09:13;;;;;;;22.25;20.52;;;;;;;26.15;100.00;101591.53;5019777;28;20038;-80
2023/08/12 08:11:40;;;;;;;23.35;21.65;;;;;;;26.46;100.00;101591.97;5022671;28;20046;-78
2023/08/12 08:14:08;;;;;;;24.55;22.75;;;;;;;26.67;100.00;101589.00;5021533;28;20046;-78
2023/08/12 08:16:35;;;;;;;23.67;21.88;;;;;;;26.70;100.00;101591.94;5020932;28;20050;-78
2023/08/12 08:19:01;;;;;;;22.75;21.05;;;;;;;26.71;100.00;101585.38;5020064;28;20045;-78
2023/08/12 08:21:28;;;;;;;22.33;20.73;;;;;;;26.60;100.00;101594.03;5021359;28;20042;-80
2023/08/12 08:23:56;;;;;;;22.92;21.23;;;;;;;25.93;100.00;101591.22;5023785;28;20486;-80
2023/08/12 08:26:23;;;;;;;23.75;21.88;;;;;;;26.39;100.00;101575.19;5025011;28;20049;-80
2023/08/12 08:28:49;;;;;;;22.70;21.00;;;;;;;26.73;100.00;101591.38;5022734;28;20053;-81
2023/08/12 08:31:18;;;;;;;23.50;21.80;;;;;;;26.85;100.00;101580.03;5022633;28;20490;-80
2023/08/12 08:33:44;;;;;;;23.23;21.48;;;;;;;27.01;100.00;101580.59;5021359;28;20498;-80
2023/08/12 08:36:11;;;;;;;24.70;22.70;;;;;;;26.99;100.00;101576.56;5023377;28;20437;-80
2023/08/12 08:38:38;;;;;;;23.75;22.05;;;;;;;26.75;100.00;101572.00;5020429;28;20045;-81
2023/08/12 08:41:07;;;;;;;24.27;22.48;;;;;;;26.88;100.00;101578.63;5024611;28;20042;-78
2023/08/12 08:43:36;;;;;;;24.60;22.80;;;;;;;26.92;100.00;101569.56;5025332;28;20064;-78
2023/08/12 08:46:04;;;;;;;24.33;22.63;;;;;;;27.20;100.00;101566.16;5025993;28;20048;-78
2023/08/12 08:48:33;;;;;;;23.63;21.92;;;;;;;27.26;100.00;101564.97;5026686;28;20060;-78
2023/08/12 08:51:02;;;;;;;22.02;20.42;;;;;;;27.41;100.00;101562.00;5019560;28;20046;-80
2023/08/12 08:53:29;;;;;;;24.70;22.90;;;;;;;27.78;100.00;101555.63;5027440;28;20049;-81
2023/08/12 08:55:57;;;;;;;25.38;23.58;;;;;;;27.90;100.00;101563.34;5030580;28;20537;-80
2023/08/12 08:58:23;;;;;;;26.67;24.67;;;;;;;27.95;100.00;101554.22;5031730;28;20044;-80
2023/08/12 09:00:51;;;;;;;26.88;24.98;;;;;;;27.28;100.00;101552.66;5023285;28;20053;-80
2023/08/12 09:03:18;;;;;;;27.15;25.05;;;;;;;28.32;100.00;101544.97;5028151;28;20057;-80
2023/08/12 09:05:47;;;;;;;25.80;23.85;;;;;;;28.19;100.00;101543.91;5026790;28;20057;-80
2023/08/12 09:08:16;;;;;;;28.73;26.52;;;;;;;28.92;100.00;101541.22;5027590;28;20048;-79
2023/08/12 09:10:44;;;;;;;26.85;24.75;;;;;;;28.88;100.00;101545.69;5022389;28;20140;-80
2023/08/12 09:13:10;;;;;;;25.98;23.92;;;;;;;28.45;100.00;101538.75;5032161;28;20053;-80
2023/08/12 09:15:38;;;;;;;26.38;24.27;;;;;;;28.37;100.00;101535.88;5029931;28;20413;-80
2023/08/12 09:18:06;;;;;;;27.33;25.23;;;;;;;27.99;100.00;101550.59;5029651;28;20056;-79
2023/08/12 09:20:33;;;;;;;26.08;23.98;;;;;;;27.66;100.00;101532.63;5030629;28;20504;-79
2023/08/12 09:23:02;;;;;;;27.20;25.10;;;;;;;27.91;100.00;101523.19;5031270;28;20132;-79
2023/08/12 09:25:29;;;;;;;27.27;25.08;;;;;;;28.25;100.00;101530.94;5032065;28;20050;-78
2023/08/12 09:27:59;;;;;;;27.52;25.52;;;;;;;28.79;100.00;101525.69;5031416;28;20045;-79
2023/08/12 09:30:29;;;;;;;26.35;24.42;;;;;;;29.13;100.00;101531.41;5031046;28;20108;-79
2023/08/12 09:33:02;;;;;;;38.47;24.67;;;;;;;28.61;100.00;101519.25;5026265;28;20037;-78
2023/08/12 09:35:33;;;;;;;25.88;23.88;;;;;;;29.24;100.00;101522.97;5027815;28;20496;-78
2023/08/12 09:38:02;;;;;;;27.65;25.55;;;;;;;29.51;100.00;101520.06;5027679;28;20056;-78
2023/08/12 09:40:30;;;;;;;23.65;21.75;;;;;;;29.38;100.00;101520.94;5020461;28;20073;-78
2023/08/12 09:42:57;;;;;;;48.67;21.73;;;;;;;28.24;100.00;101511.03;5027255;28;20046;-80
2023/08/12 09:45:25;;;;;;;24.63;22.83;;;;;;;27.85;100.00;101511.56;5029720;28;20042;-80
2023/08/12 09:47:52;;;;;;;24.95;22.95;;;;;;;28.66;100.00;101516.44;5027737;28;20440;-79
2023/08/12 09:50:18;;;;;;;24.67;22.88;;;;;;;29.11;100.00;101509.06;5028460;28;20049;-80
2023/08/12 09:52:46;;;;;;;24.75;22.85;;;;;;;29.38;100.00;101501.78;5029211;28;20057;-80
2023/08/12 09:55:17;;;;;;;23.60;21.80;;;;;;;29.42;100.00;101498.13;5028092;28;20432;-80
2023/08/12 09:57:49;;;;;;;25.85;23.95;;;;;;;29.41;100.00;101493.78;5029132;28;20057;-85
2023/08/12 10:00:18;;;;;;;24.15;22.35;;;;;;;29.31;100.00;101493.22;5014594;28;20050;-82
2023/08/12 10:02:46;;;;;;;24.27;22.48;;;;;;;29.51;100.00;101487.22;5013535;28;20058;-82
2023/08/12 10:05:17;;;;;;;25.45;23.55;;;;;;;29.53;100.00;101482.22;5029589;28;20053;-81
2023/08/12 10:07:46;;;;;;;24.15;22.35;;;;;;;29.54;100.00;101480.31;5031877;28;20053;-83
2023/08/12 10:10:15;;;;;;;29.55;26.90;;;;;;;30.34;100.00;101478.28;5030248;28;20050;-82
2023/08/12 10:12:42;;;;;;;23.65;22.08;;;;;;;29.47;100.00;101480.75;5024621;28;20053;-84
2023/08/12 10:15:10;;;;;;;27.27;25.27;;;;;;;29.87;100.00;101476.09;5023726;28;20413;-82
2023/08/12 10:17:37;;;;;;;27.48;25.25;;;;;;;29.47;100.00;101469.81;5020614;28;20053;-81
2023/08/12 10:20:07;;;;;;;23.45;21.75;;;;;;;29.67;100.00;101474.75;5026894;28;20053;-85
2023/08/12 10:22:36;;;;;;;24.88;22.98;;;;;;;30.61;100.00;101463.47;5022040;28;20507;-82
2023/08/12 10:25:04;;;;;;;25.33;23.58;;;;;;;30.51;94.49;101461.06;5031370;28;20045;-84
2023/08/12 10:27:32;;;;;;;25.83;24.02;;;;;;;29.70;100.00;101450.63;5031521;28;20099;-84
2023/08/12 10:29:59;;;;;;;24.33;22.52;;;;;;;30.51;94.20;101458.31;5031619;28;20064;-84
2023/08/12 10:32:26;;;;;;;26.88;24.98;;;;;;;30.45;92.09;101456.88;5031093;28;20434;-84
2023/08/12 10:34:57;;;;;;;26.02;24.02;;;;;;;30.92;99.28;101452.31;5031188;28;20498;-85
2023/08/12 10:37:25;;;;;;;27.00;25.00;;;;;;;30.55;99.69;101448.31;5031572;28;20049;-84
2023/08/12 10:39:53;;;;;;;25.80;23.90;;;;;;;30.22;91.66;101453.47;5031727;28;20053;-84
2023/08/12 10:42:43;;;;;;;27.30;24.38;;;;;;;31.44;90.38;101441.19;5031510;28;20053;-84
2023/08/12 10:45:10;;;;;;;28.00;26.00;;;;;;;31.60;81.17;101444.19;5031289;28;20053;-83
2023/08/12 10:47:43;;;;;;;26.50;24.70;;;;;;;32.12;75.10;101441.13;5031182;28;20077;-82
2023/08/12 10:50:21;;;;;;;28.40;26.40;;;;;;;30.86;91.55;101437.16;5028710;28;20128;-85
2023/08/12 10:52:48;;;;;;;24.73;22.85;;;;;;;31.27;91.75;101436.56;5017915;28;20111;-84
2023/08/12 10:55:23;;;;;;;24.38;22.58;;;;;;;32.31;71.44;101434.34;5024635;28;20433;-85
2023/08/12 10:57:52;;;;;;;24.10;22.30;;;;;;;31.28;81.40;101431.88;5024186;28;20085;-84
2023/08/12 11:00:22;;;;;;;25.15;23.35;;;;;;;31.69;86.49;101424.91;5023198;28;20045;-84
2023/08/12 11:02:53;;;;;;;24.25;22.45;;;;;;;32.33;75.14;101424.63;5021342;28;20132;-84
2023/08/12 11:05:21;;;;;;;27.90;25.90;;;;;;;31.82;71.33;101423.06;5021059;28;20045;-84